Aviation Digital Data Service (ADDS)

Output produced by METARs form (0802 UTC 20 March 2019)
found at http://www.aviationweather.gov/metar/data/
 
Forecast for: KGEG (SPOKANE/METRO , WA, US)
Text: KGEG 200542Z 2006/2106 03005KT P6SM SKC
Forecast period: 0600 UTC 20 March 2019 to 0600 UTC 21 March 2019
Forecast type: FROM: standard forecast or significant change
Winds: from the NNE (30 degrees) at 6 MPH (5 knots; 2.6 m/s)
Visibility: 6 or more miles 10+ km)
Clouds: clear skies
Weather: no significant weather forecast for this period